createdAt,value
2023-01-28T00:00:12.215Z,-1.3
2023-01-28T00:03:12.483Z,-1.3
2023-01-28T00:06:12.091Z,-1.3
2023-01-28T00:09:12.106Z,-1.3
2023-01-28T00:12:12.098Z,-1.3
2023-01-28T00:15:12.436Z,-1.3
2023-01-28T00:18:12.162Z,-1.3
2023-01-28T00:21:12.154Z,-1.3
2023-01-28T00:24:12.580Z,-1.3
2023-01-28T00:27:12.156Z,-1.1
2023-01-28T00:30:12.157Z,-1.1
2023-01-28T00:33:12.146Z,-1
2023-01-28T00:36:12.317Z,-1
2023-01-28T00:39:12.110Z,-0.9
2023-01-28T00:42:12.168Z,-0.9
2023-01-28T00:45:12.113Z,-0.8
2023-01-28T00:48:12.112Z,-0.6
2023-01-28T00:51:12.253Z,-0.5
2023-01-28T00:54:12.084Z,-0.3
2023-01-28T00:57:12.173Z,-0.3
2023-01-28T01:00:12.707Z,0
2023-01-28T01:03:12.102Z,0
2023-01-28T01:06:12.230Z,0.1
2023-01-28T01:09:14.945Z,0.3
2023-01-28T01:12:12.143Z,0.4
2023-01-28T01:15:12.611Z,0.4
2023-01-28T01:18:12.124Z,0.5
2023-01-28T01:21:12.080Z,0.5
2023-01-28T01:24:12.514Z,0.6
2023-01-28T01:27:12.155Z,0.6
2023-01-28T01:30:12.658Z,0.6
2023-01-28T01:33:12.244Z,0.8
2023-01-28T01:36:12.174Z,0.8
2023-01-28T01:39:12.175Z,0.8
2023-01-28T01:42:12.102Z,0.8
2023-01-28T01:45:12.441Z,0.8
2023-01-28T01:48:12.128Z,0.8
2023-01-28T01:51:12.153Z,0.9
2023-01-28T01:54:12.052Z,0.9
2023-01-28T01:57:12.157Z,0.9
2023-01-28T02:00:12.485Z,0.9
2023-01-28T02:03:12.620Z,0.9
2023-01-28T02:06:12.200Z,0.9
2023-01-28T02:09:12.222Z,0.9
2023-01-28T02:12:12.156Z,0.9
2023-01-28T02:15:12.410Z,0.9
2023-01-28T02:18:12.148Z,0.9
2023-01-28T02:21:12.168Z,0.9
2023-01-28T02:24:12.655Z,0.9
2023-01-28T02:27:12.110Z,0.9
2023-01-28T02:30:12.200Z,0.9
2023-01-28T02:33:12.157Z,0.9
2023-01-28T02:36:12.125Z,0.8
2023-01-28T02:39:12.087Z,0.9
2023-01-28T02:42:12.169Z,0.8
2023-01-28T02:45:12.624Z,0.9
2023-01-28T02:48:12.203Z,0.9
2023-01-28T02:51:12.131Z,0.8
2023-01-28T02:54:12.120Z,0.8
2023-01-28T02:57:12.143Z,0.9
2023-01-28T03:00:12.262Z,0.8
2023-01-28T03:03:12.129Z,0.9
2023-01-28T03:06:12.246Z,0.9
2023-01-28T03:09:12.130Z,0.9
2023-01-28T03:12:12.192Z,0.8
2023-01-28T03:15:13.222Z,0.9
2023-01-28T03:18:12.514Z,0.9
2023-01-28T03:21:12.245Z,0.9
2023-01-28T03:24:12.481Z,0.8
2023-01-28T03:27:12.171Z,0.8
2023-01-28T03:30:12.103Z,0.9
2023-01-28T03:33:12.139Z,0.9
2023-01-28T03:36:12.127Z,0.8
2023-01-28T03:39:12.185Z,0.8
2023-01-28T03:42:12.120Z,0.8
2023-01-28T03:45:12.111Z,0.8
2023-01-28T03:48:12.186Z,0.8
2023-01-28T03:51:12.221Z,0.8
2023-01-28T03:54:12.113Z,0.8
2023-01-28T03:57:12.098Z,0.8
2023-01-28T04:00:12.166Z,0.8
2023-01-28T04:03:12.507Z,0.8
2023-01-28T04:06:12.111Z,0.8
2023-01-28T04:09:12.112Z,0.8
2023-01-28T04:12:12.145Z,0.8
2023-01-28T04:15:12.593Z,0.8
2023-01-28T04:18:12.110Z,0.8
2023-01-28T04:21:12.189Z,0.8
2023-01-28T04:24:12.374Z,0.8
2023-01-28T04:27:12.192Z,0.8
2023-01-28T04:30:12.135Z,0.8
2023-01-28T04:33:12.143Z,0.8
2023-01-28T04:36:12.226Z,0.8
2023-01-28T04:39:12.194Z,0.8
2023-01-28T04:42:12.200Z,0.8
2023-01-28T04:45:12.317Z,0.8
2023-01-28T04:48:12.122Z,0.8
2023-01-28T04:51:12.079Z,0.8
2023-01-28T04:54:12.098Z,0.8
2023-01-28T04:57:12.114Z,0.8
2023-01-28T05:00:12.318Z,0.8
2023-01-28T05:03:12.126Z,0.9
2023-01-28T05:06:12.145Z,0.8
2023-01-28T05:09:12.073Z,0.8
2023-01-28T05:12:12.096Z,0.9
2023-01-28T05:15:12.219Z,0.9
2023-01-28T05:18:12.128Z,0.9
2023-01-28T05:21:12.204Z,0.9
2023-01-28T05:24:12.664Z,0.9
2023-01-28T05:27:12.208Z,0.9
2023-01-28T05:30:12.454Z,0.9
2023-01-28T05:33:12.126Z,0.9
2023-01-28T05:36:12.128Z,0.9
2023-01-28T05:39:12.122Z,0.9
2023-01-28T05:42:12.203Z,0.9
2023-01-28T05:45:12.368Z,0.9
2023-01-28T05:48:12.061Z,0.9
2023-01-28T05:51:12.137Z,0.9
2023-01-28T05:54:12.267Z,0.9
2023-01-28T05:57:12.163Z,0.9
2023-01-28T06:00:12.117Z,0.9
2023-01-28T06:03:12.196Z,0.9
2023-01-28T06:06:12.193Z,0.9
2023-01-28T06:09:12.059Z,0.9
2023-01-28T06:12:12.184Z,0.9
2023-01-28T06:15:12.147Z,0.9
2023-01-28T06:18:12.112Z,0.9
2023-01-28T06:21:12.104Z,0.9
2023-01-28T06:24:12.674Z,0.9
2023-01-28T06:27:12.124Z,0.9
2023-01-28T06:30:12.266Z,0.9
2023-01-28T06:33:12.085Z,0.9
2023-01-28T06:36:12.080Z,0.9
2023-01-28T06:39:12.220Z,0.9
2023-01-28T06:42:12.100Z,0.9
2023-01-28T06:45:12.235Z,0.9
2023-01-28T06:48:15.428Z,0.9
2023-01-28T06:51:12.092Z,0.9
2023-01-28T06:54:12.242Z,0.9
2023-01-28T06:57:12.228Z,0.9
2023-01-28T07:00:12.392Z,0.9
2023-01-28T07:03:12.641Z,0.9
2023-01-28T07:06:12.186Z,0.9
2023-01-28T07:09:12.248Z,0.9
2023-01-28T07:12:12.264Z,1
2023-01-28T07:15:12.178Z,1
2023-01-28T07:18:12.422Z,1
2023-01-28T07:21:12.167Z,1
2023-01-28T07:24:12.701Z,1.1
2023-01-28T07:27:12.177Z,1
2023-01-28T07:30:12.724Z,1.1
2023-01-28T07:33:12.249Z,1.1
2023-01-28T07:36:12.340Z,1.3
2023-01-28T07:39:12.277Z,1.3
2023-01-28T07:42:12.229Z,1.3
2023-01-28T07:45:12.302Z,1.3
2023-01-28T07:48:12.285Z,1.3
2023-01-28T07:51:12.321Z,1.4
2023-01-28T07:54:12.489Z,1.5
2023-01-28T07:57:12.397Z,1.5
2023-01-28T08:00:13.471Z,1.6
2023-01-28T08:03:12.412Z,1.8
2023-01-28T08:06:12.242Z,1.9
2023-01-28T08:09:13.222Z,2
2023-01-28T08:12:12.213Z,2.1
2023-01-28T08:15:12.189Z,2.2
2023-01-28T08:18:12.177Z,2.5
2023-01-28T08:21:12.338Z,2.7
2023-01-28T08:24:12.564Z,3
2023-01-28T08:27:12.159Z,3.1
2023-01-28T08:30:12.320Z,3
2023-01-28T08:33:12.171Z,3.1
2023-01-28T08:36:12.172Z,3.2
2023-01-28T08:39:12.339Z,3.4
2023-01-28T08:42:12.151Z,3.5
2023-01-28T08:45:12.244Z,3.6
2023-01-28T08:48:12.170Z,3.6
2023-01-28T08:51:12.195Z,3.7
2023-01-28T08:54:12.175Z,3.9
2023-01-28T08:57:12.142Z,3.9
2023-01-28T09:00:12.259Z,4
2023-01-28T09:03:15.093Z,4
2023-01-28T09:06:12.179Z,4
2023-01-28T09:09:12.159Z,4.1
2023-01-28T09:12:12.151Z,4
2023-01-28T09:15:12.245Z,3.7
2023-01-28T09:18:12.137Z,3.4
2023-01-28T09:21:12.185Z,3.1
2023-01-28T09:24:12.462Z,3
2023-01-28T09:27:12.139Z,2.9
2023-01-28T09:30:12.350Z,2.9
2023-01-28T09:33:12.257Z,3
2023-01-28T09:36:12.189Z,3.4
2023-01-28T09:39:13.065Z,4
2023-01-28T09:42:12.268Z,4.7
2023-01-28T09:45:12.219Z,5.4
2023-01-28T09:48:12.231Z,6.1
2023-01-28T09:51:12.235Z,6.5
2023-01-28T09:54:12.192Z,6.7
2023-01-28T09:57:12.259Z,7
2023-01-28T10:00:14.595Z,7.2
2023-01-28T10:03:12.126Z,7.2
2023-01-28T10:06:12.207Z,7.1
2023-01-28T10:09:12.239Z,6.7
2023-01-28T10:12:12.163Z,6.4
2023-01-28T10:15:12.153Z,6
2023-01-28T10:18:29.000Z,5.6
2023-01-28T10:21:12.292Z,5.4
2023-01-28T10:24:12.602Z,5.1
2023-01-28T10:27:12.169Z,5.1
2023-01-28T10:30:12.216Z,5
2023-01-28T10:33:12.218Z,5
2023-01-28T10:36:12.204Z,4.9
2023-01-28T10:39:12.305Z,5
2023-01-28T10:42:12.181Z,5.1
2023-01-28T10:45:12.201Z,5.2
2023-01-28T10:48:12.208Z,5.4
2023-01-28T10:51:12.130Z,5.4
2023-01-28T10:54:12.138Z,5.5
2023-01-28T10:57:12.341Z,5.5
2023-01-28T11:00:12.897Z,5.4
2023-01-28T11:03:12.206Z,5.2
2023-01-28T11:06:12.278Z,5.1
2023-01-28T11:09:12.885Z,5
2023-01-28T11:12:12.196Z,4.6
2023-01-28T11:15:12.276Z,4.6
2023-01-28T11:18:14.542Z,4.7
2023-01-28T11:21:12.201Z,4.7
2023-01-28T11:24:12.544Z,5.4
2023-01-28T11:27:13.686Z,6
2023-01-28T11:30:12.253Z,6.6
2023-01-28T11:33:12.372Z,6.9
2023-01-28T11:36:12.310Z,7
2023-01-28T11:39:12.217Z,7
2023-01-28T11:42:12.218Z,7.1
2023-01-28T11:45:12.897Z,7
2023-01-28T11:48:12.279Z,6.2
2023-01-28T11:51:12.686Z,5.6
2023-01-28T11:54:12.875Z,5.6
2023-01-28T11:57:12.218Z,5.6
2023-01-28T12:00:14.394Z,5.9
2023-01-28T12:03:12.232Z,6
2023-01-28T12:06:12.142Z,6.2
2023-01-28T12:09:12.149Z,6.6
2023-01-28T12:12:13.928Z,6.9
2023-01-28T12:15:12.404Z,6.6
2023-01-28T12:18:12.187Z,6.9
2023-01-28T12:21:12.195Z,7.2
2023-01-28T12:24:14.894Z,7.4
2023-01-28T12:27:12.200Z,7.4
2023-01-28T12:30:12.301Z,7.5
2023-01-28T12:33:12.259Z,7.9
2023-01-28T12:36:12.266Z,8.1
2023-01-28T12:39:12.303Z,8.3
2023-01-28T12:42:12.229Z,8.1
2023-01-28T12:45:12.296Z,8.1
2023-01-28T12:48:12.137Z,8
2023-01-28T12:51:12.304Z,7.9
2023-01-28T12:54:12.267Z,7.6
2023-01-28T12:57:12.187Z,7.4
2023-01-28T13:00:12.206Z,7
2023-01-28T13:03:12.685Z,6.9
2023-01-28T13:06:12.196Z,7
2023-01-28T13:09:12.298Z,7.2
2023-01-28T13:12:13.807Z,7.9
2023-01-28T13:15:12.172Z,8.4
2023-01-28T13:18:12.294Z,8.4
2023-01-28T13:21:12.166Z,8
2023-01-28T13:24:12.492Z,7.6
2023-01-28T13:27:12.375Z,7.4
2023-01-28T13:30:12.314Z,7.2
2023-01-28T13:33:12.195Z,7.1
2023-01-28T13:36:12.240Z,7
2023-01-28T13:39:12.287Z,6.9
2023-01-28T13:42:12.141Z,7
2023-01-28T13:45:12.277Z,7.2
2023-01-28T13:48:12.137Z,7
2023-01-28T13:51:12.131Z,8.6
2023-01-28T13:54:12.185Z,9.3
2023-01-28T13:57:12.340Z,8.6
2023-01-28T14:00:12.361Z,9.6
2023-01-28T14:03:12.302Z,9.6
2023-01-28T14:06:12.341Z,10.9
2023-01-28T14:09:12.231Z,12.9
2023-01-28T14:12:12.310Z,13.9
2023-01-28T14:15:16.559Z,12
2023-01-28T14:18:12.236Z,12.1
2023-01-28T14:21:12.255Z,10.9
2023-01-28T14:24:12.503Z,11.4
2023-01-28T14:27:12.285Z,10.1
2023-01-28T14:30:12.329Z,8.5
2023-01-28T14:33:12.193Z,7.5
2023-01-28T14:36:12.225Z,6.9
2023-01-28T14:39:12.207Z,6.5
2023-01-28T14:42:12.239Z,7.5
2023-01-28T14:45:12.297Z,6.6
2023-01-28T14:48:12.237Z,6.4
2023-01-28T14:51:12.190Z,6.2
2023-01-28T14:54:12.178Z,7
2023-01-28T14:57:12.172Z,6.7
2023-01-28T15:00:12.851Z,6
2023-01-28T15:03:33.521Z,5.2
2023-01-28T15:06:12.235Z,4.9
2023-01-28T15:09:12.281Z,4.5
2023-01-28T15:12:15.228Z,4.1
2023-01-28T15:15:12.251Z,3.9
2023-01-28T15:18:12.155Z,3.5
2023-01-28T15:21:12.219Z,3.1
2023-01-28T15:24:12.579Z,2.6
2023-01-28T15:27:12.202Z,2.2
2023-01-28T15:30:12.170Z,1.9
2023-01-28T15:33:12.263Z,1.6
2023-01-28T15:36:12.245Z,1.4
2023-01-28T15:39:12.291Z,1.3
2023-01-28T15:42:12.339Z,0.9
2023-01-28T15:45:12.370Z,0.6
2023-01-28T15:48:12.398Z,0.4
2023-01-28T15:51:12.294Z,0
2023-01-28T15:54:12.265Z,-0.3
2023-01-28T15:57:12.232Z,-0.5
2023-01-28T16:00:13.313Z,-0.9
2023-01-28T16:03:12.579Z,-1
2023-01-28T16:06:15.180Z,-1.3
2023-01-28T16:09:12.225Z,-1.4
2023-01-28T16:12:12.212Z,-1.5
2023-01-28T16:15:12.248Z,-1.5
2023-01-28T16:18:12.198Z,0.4
2023-01-28T16:21:15.018Z,0.2
2023-01-28T16:24:12.566Z,0.1
2023-01-28T16:27:12.155Z,0.1
2023-01-28T16:30:12.341Z,0.1
2023-01-28T16:33:12.146Z,0.1
2023-01-28T16:36:20.097Z,0.1
2023-01-28T16:39:12.364Z,0
2023-01-28T16:42:12.131Z,0
2023-01-28T16:45:12.296Z,-0.1
2023-01-28T16:48:12.118Z,-0.3
2023-01-28T16:51:12.152Z,-0.4
2023-01-28T16:54:12.166Z,-0.5
2023-01-28T16:57:12.107Z,-0.6
2023-01-28T17:00:12.465Z,-0.8
2023-01-28T17:03:12.081Z,-0.9
2023-01-28T17:06:12.433Z,-0.9
2023-01-28T17:09:12.173Z,-1.1
2023-01-28T17:12:12.316Z,-1.1
2023-01-28T17:15:12.434Z,-1.1
2023-01-28T17:18:12.159Z,-1.1
2023-01-28T17:21:12.171Z,-1.1
2023-01-28T17:24:12.820Z,-1.1
2023-01-28T17:27:12.136Z,-1.1
2023-01-28T17:30:12.203Z,-1.1
2023-01-28T17:33:12.195Z,-1.1
2023-01-28T17:36:12.252Z,-1.3
2023-01-28T17:39:12.169Z,-1.3
2023-01-28T17:42:14.498Z,-1.3
2023-01-28T17:45:12.120Z,-1.4
2023-01-28T17:48:12.191Z,-1.4
2023-01-28T17:51:12.453Z,-1.4
2023-01-28T17:54:12.091Z,-1.5
2023-01-28T17:57:12.113Z,-1.5
2023-01-28T18:00:12.253Z,-1.5
2023-01-28T18:03:12.083Z,-1.5
2023-01-28T18:06:12.078Z,-1.1
2023-01-28T18:09:12.195Z,-0.8
2023-01-28T18:12:12.176Z,-0.6
2023-01-28T18:15:13.994Z,-0.5
2023-01-28T18:18:12.217Z,-0.5
2023-01-28T18:21:12.385Z,-0.6
2023-01-28T18:24:12.325Z,-0.8
2023-01-28T18:27:12.208Z,-0.9
2023-01-28T18:30:12.247Z,-1
2023-01-28T18:33:12.216Z,-1.1
2023-01-28T18:36:12.206Z,-1.3
2023-01-28T18:39:12.151Z,-1.3
2023-01-28T18:42:12.136Z,-1.1
2023-01-28T18:45:12.137Z,-1.1
2023-01-28T18:48:12.097Z,-1
2023-01-28T18:51:31.894Z,-1
2023-01-28T18:54:17.538Z,-1
2023-01-28T18:57:12.153Z,-1
2023-01-28T19:00:12.291Z,-1.1
2023-01-28T19:03:12.126Z,-1.1
2023-01-28T19:06:12.422Z,-1.1
2023-01-28T19:09:12.129Z,-1
2023-01-28T19:12:12.171Z,-1
2023-01-28T19:15:12.208Z,-0.9
2023-01-28T19:18:12.101Z,-0.8
2023-01-28T19:21:12.228Z,-0.8
2023-01-28T19:24:12.608Z,-0.6
2023-01-28T19:27:12.176Z,-0.6
2023-01-28T19:30:12.183Z,-0.6
2023-01-28T19:33:12.158Z,-0.6
2023-01-28T19:36:12.164Z,-0.6
2023-01-28T19:39:12.214Z,-0.6
2023-01-28T19:42:12.235Z,-0.6
2023-01-28T19:45:15.275Z,-0.6
2023-01-28T19:48:12.147Z,-0.8
2023-01-28T19:51:12.054Z,-0.8
2023-01-28T19:54:12.059Z,-0.8
2023-01-28T19:57:12.191Z,-0.8
2023-01-28T20:00:12.483Z,-0.8
2023-01-28T20:03:12.129Z,-0.8
2023-01-28T20:06:12.202Z,-0.6
2023-01-28T20:09:12.223Z,-0.6
2023-01-28T20:12:12.180Z,-0.6
2023-01-28T20:15:12.210Z,-0.6
2023-01-28T20:18:13.878Z,-0.6
2023-01-28T20:21:12.047Z,-0.8
2023-01-28T20:24:12.747Z,-0.8
2023-01-28T20:27:12.113Z,-0.8
2023-01-28T20:30:12.301Z,-0.6
2023-01-28T20:33:12.139Z,-0.6
2023-01-28T20:36:12.102Z,-0.6
2023-01-28T20:39:12.103Z,-0.8
2023-01-28T20:42:12.165Z,-0.8
2023-01-28T20:45:12.180Z,-0.8
2023-01-28T20:48:12.124Z,-0.9
2023-01-28T20:51:12.127Z,-1
2023-01-28T20:54:12.234Z,-1.1
2023-01-28T20:57:12.136Z,-1.1
2023-01-28T21:00:13.111Z,-1.3
2023-01-28T21:03:12.278Z,-1.4
2023-01-28T21:06:12.148Z,-1.5
2023-01-28T21:09:12.276Z,-1.5
2023-01-28T21:12:12.099Z,-1.6
2023-01-28T21:15:12.093Z,-1.6
2023-01-28T21:18:12.126Z,-1.8
2023-01-28T21:21:12.160Z,-1.8
2023-01-28T21:24:12.889Z,-1.8
2023-01-28T21:27:12.151Z,-1.9
2023-01-28T21:30:12.182Z,-1.9
2023-01-28T21:33:12.157Z,-1.9
2023-01-28T21:36:12.176Z,-1.9
2023-01-28T21:39:12.219Z,-1.9
2023-01-28T21:42:12.154Z,-2
2023-01-28T21:45:12.333Z,-2
2023-01-28T21:48:12.103Z,-2
2023-01-28T21:51:12.157Z,-2.1
2023-01-28T21:54:12.174Z,-2.1
2023-01-28T21:57:12.121Z,-2.3
2023-01-28T22:00:12.382Z,-2.3
2023-01-28T22:03:12.645Z,-2.4
2023-01-28T22:06:12.043Z,-2.5
2023-01-28T22:09:12.188Z,-2.5
2023-01-28T22:12:12.176Z,-2.6
2023-01-28T22:15:12.268Z,-2.6
2023-01-28T22:18:12.050Z,-2.6
2023-01-28T22:21:12.066Z,-2.8
2023-01-28T22:24:12.443Z,-2.8
2023-01-28T22:27:12.094Z,-2.8
2023-01-28T22:30:12.353Z,-2.8
2023-01-28T22:33:12.105Z,-2.8
2023-01-28T22:36:12.130Z,-2.8
2023-01-28T22:39:12.057Z,-2.8
2023-01-28T22:42:12.161Z,-2.9
2023-01-28T22:45:12.115Z,-2.9
2023-01-28T22:48:12.096Z,-2.9
2023-01-28T22:51:12.095Z,-3
2023-01-28T22:54:12.248Z,-3
2023-01-28T22:57:12.115Z,-3
2023-01-28T23:00:13.452Z,-3.1
2023-01-28T23:03:12.584Z,-3.1
2023-01-28T23:06:12.302Z,-3.1
2023-01-28T23:09:12.147Z,-3.1
2023-01-28T23:12:12.121Z,-3
2023-01-28T23:15:12.378Z,-2.9
2023-01-28T23:18:12.261Z,-2.9
2023-01-28T23:21:12.264Z,-2.8
2023-01-28T23:24:12.525Z,-2.6
2023-01-28T23:27:12.218Z,-2.5
2023-01-28T23:30:12.561Z,-2.4
2023-01-28T23:33:12.122Z,-2.3
2023-01-28T23:36:12.155Z,-2.3
2023-01-28T23:39:12.060Z,-2.3
2023-01-28T23:42:12.148Z,-2.3
2023-01-28T23:45:12.170Z,-2.3
2023-01-28T23:48:12.235Z,-2.4
2023-01-28T23:51:12.187Z,-2.4
2023-01-28T23:54:12.043Z,-2.4
2023-01-28T23:57:12.199Z,-2.5
